sensor_id;sensor_type;location;lat;lon;timestamp;P1;durP1;ratioP1;P2;durP2;ratioP2
78995;SDS011;68401;47.192;-1.552;2023-12-14T00:00:34;6.95;;;2.90;;
78995;SDS011;68401;47.192;-1.552;2023-12-14T00:03:00;5.28;;;2.28;;
78995;SDS011;68401;47.192;-1.552;2023-12-14T00:05:25;6.60;;;2.97;;
78995;SDS011;68401;47.192;-1.552;2023-12-14T00:07:51;4.72;;;2.53;;
78995;SDS011;68401;47.192;-1.552;2023-12-14T00:10:16;6.85;;;2.33;;
78995;SDS011;68401;47.192;-1.552;2023-12-14T00:12:43;5.85;;;2.40;;
78995;SDS011;68401;47.192;-1.552;2023-12-14T00:15:09;7.00;;;2.78;;
78995;SDS011;68401;47.192;-1.552;2023-12-14T00:17:34;5.15;;;2.45;;
78995;SDS011;68401;47.192;-1.552;2023-12-14T00:20:00;6.38;;;2.80;;
78995;SDS011;68401;47.192;-1.552;2023-12-14T00:22:25;3.90;;;2.33;;
78995;SDS011;68401;47.192;-1.552;2023-12-14T00:24:51;4.70;;;2.85;;
78995;SDS011;68401;47.192;-1.552;2023-12-14T00:27:18;5.10;;;3.13;;
78995;SDS011;68401;47.192;-1.552;2023-12-14T00:29:43;8.45;;;2.58;;
78995;SDS011;68401;47.192;-1.552;2023-12-14T00:32:08;4.55;;;1.95;;
78995;SDS011;68401;47.192;-1.552;2023-12-14T00:34:34;3.63;;;2.10;;
78995;SDS011;68401;47.192;-1.552;2023-12-14T00:36:59;7.25;;;2.40;;
78995;SDS011;68401;47.192;-1.552;2023-12-14T00:39:25;4.30;;;2.28;;
78995;SDS011;68401;47.192;-1.552;2023-12-14T00:41:50;7.00;;;2.60;;
78995;SDS011;68401;47.192;-1.552;2023-12-14T00:44:16;4.72;;;2.00;;
78995;SDS011;68401;47.192;-1.552;2023-12-14T00:46:42;4.60;;;2.13;;
78995;SDS011;68401;47.192;-1.552;2023-12-14T00:49:07;3.97;;;2.05;;
78995;SDS011;68401;47.192;-1.552;2023-12-14T00:51:33;4.10;;;2.80;;
78995;SDS011;68401;47.192;-1.552;2023-12-14T00:53:58;6.53;;;2.30;;
78995;SDS011;68401;47.192;-1.552;2023-12-14T00:56:24;7.05;;;2.40;;
78995;SDS011;68401;47.192;-1.552;2023-12-14T00:58:49;9.40;;;2.38;;
78995;SDS011;68401;47.192;-1.552;2023-12-14T01:01:14;4.30;;;2.17;;
78995;SDS011;68401;47.192;-1.552;2023-12-14T01:03:40;4.38;;;2.10;;
78995;SDS011;68401;47.192;-1.552;2023-12-14T01:06:05;4.75;;;2.03;;
78995;SDS011;68401;47.192;-1.552;2023-12-14T01:08:32;4.78;;;2.10;;
78995;SDS011;68401;47.192;-1.552;2023-12-14T01:10:57;4.78;;;2.22;;
78995;SDS011;68401;47.192;-1.552;2023-12-14T01:13:22;3.45;;;2.10;;
78995;SDS011;68401;47.192;-1.552;2023-12-14T01:15:48;8.15;;;2.55;;
78995;SDS011;68401;47.192;-1.552;2023-12-14T01:18:13;5.35;;;2.15;;
78995;SDS011;68401;47.192;-1.552;2023-12-14T01:20:39;8.20;;;2.33;;
78995;SDS011;68401;47.192;-1.552;2023-12-14T01:23:04;4.90;;;2.08;;
78995;SDS011;68401;47.192;-1.552;2023-12-14T01:25:30;4.45;;;2.42;;
78995;SDS011;68401;47.192;-1.552;2023-12-14T01:27:55;5.70;;;2.10;;
78995;SDS011;68401;47.192;-1.552;2023-12-14T01:30:20;7.47;;;2.40;;
78995;SDS011;68401;47.192;-1.552;2023-12-14T01:32:46;3.83;;;1.75;;
78995;SDS011;68401;47.192;-1.552;2023-12-14T01:35:11;4.57;;;2.63;;
78995;SDS011;68401;47.192;-1.552;2023-12-14T01:37:44;5.13;;;2.10;;
78995;SDS011;68401;47.192;-1.552;2023-12-14T01:40:09;5.72;;;2.28;;
78995;SDS011;68401;47.192;-1.552;2023-12-14T01:42:35;7.97;;;2.38;;
78995;SDS011;68401;47.192;-1.552;2023-12-14T01:45:00;5.05;;;2.40;;
78995;SDS011;68401;47.192;-1.552;2023-12-14T01:47:26;5.78;;;2.45;;
78995;SDS011;68401;47.192;-1.552;2023-12-14T01:49:51;6.63;;;2.42;;
78995;SDS011;68401;47.192;-1.552;2023-12-14T01:52:17;7.68;;;2.50;;
78995;SDS011;68401;47.192;-1.552;2023-12-14T01:54:42;6.15;;;2.70;;
78995;SDS011;68401;47.192;-1.552;2023-12-14T01:57:07;3.17;;;1.92;;
78995;SDS011;68401;47.192;-1.552;2023-12-14T01:59:33;3.55;;;2.20;;
78995;SDS011;68401;47.192;-1.552;2023-12-14T02:01:58;4.35;;;2.55;;
78995;SDS011;68401;47.192;-1.552;2023-12-14T02:04:24;4.70;;;2.25;;
78995;SDS011;68401;47.192;-1.552;2023-12-14T02:06:50;5.32;;;2.47;;
78995;SDS011;68401;47.192;-1.552;2023-12-14T02:09:16;3.95;;;2.67;;
78995;SDS011;68401;47.192;-1.552;2023-12-14T02:11:41;7.07;;;2.13;;
78995;SDS011;68401;47.192;-1.552;2023-12-14T02:14:08;7.53;;;2.45;;
78995;SDS011;68401;47.192;-1.552;2023-12-14T02:16:34;3.72;;;1.77;;
78995;SDS011;68401;47.192;-1.552;2023-12-14T02:19:00;4.13;;;2.00;;
78995;SDS011;68401;47.192;-1.552;2023-12-14T02:21:25;6.22;;;2.35;;
78995;SDS011;68401;47.192;-1.552;2023-12-14T02:23:51;7.95;;;2.28;;
78995;SDS011;68401;47.192;-1.552;2023-12-14T02:26:16;5.47;;;2.00;;
78995;SDS011;68401;47.192;-1.552;2023-12-14T02:28:42;12.15;;;2.20;;
78995;SDS011;68401;47.192;-1.552;2023-12-14T02:31:07;8.20;;;2.35;;
78995;SDS011;68401;47.192;-1.552;2023-12-14T02:33:32;6.25;;;2.00;;
78995;SDS011;68401;47.192;-1.552;2023-12-14T02:35:58;4.55;;;1.98;;
78995;SDS011;68401;47.192;-1.552;2023-12-14T02:38:24;5.13;;;1.98;;
78995;SDS011;68401;47.192;-1.552;2023-12-14T02:40:50;2.28;;;1.67;;
78995;SDS011;68401;47.192;-1.552;2023-12-14T02:43:16;4.18;;;1.90;;
78995;SDS011;68401;47.192;-1.552;2023-12-14T02:45:41;4.00;;;1.77;;
78995;SDS011;68401;47.192;-1.552;2023-12-14T02:48:06;4.95;;;2.03;;
78995;SDS011;68401;47.192;-1.552;2023-12-14T02:50:32;5.68;;;2.15;;
78995;SDS011;68401;47.192;-1.552;2023-12-14T02:52:57;3.50;;;2.15;;
78995;SDS011;68401;47.192;-1.552;2023-12-14T02:55:23;4.68;;;2.10;;
78995;SDS011;68401;47.192;-1.552;2023-12-14T02:57:48;5.78;;;2.30;;
78995;SDS011;68401;47.192;-1.552;2023-12-14T03:00:13;3.92;;;2.33;;
78995;SDS011;68401;47.192;-1.552;2023-12-14T03:02:39;4.20;;;2.17;;
78995;SDS011;68401;47.192;-1.552;2023-12-14T03:05:04;5.93;;;2.83;;
78995;SDS011;68401;47.192;-1.552;2023-12-14T03:07:30;5.55;;;2.60;;
78995;SDS011;68401;47.192;-1.552;2023-12-14T03:09:56;3.60;;;2.30;;
78995;SDS011;68401;47.192;-1.552;2023-12-14T03:12:21;4.70;;;2.25;;
78995;SDS011;68401;47.192;-1.552;2023-12-14T03:14:46;6.38;;;2.65;;
78995;SDS011;68401;47.192;-1.552;2023-12-14T03:17:12;3.40;;;2.50;;
78995;SDS011;68401;47.192;-1.552;2023-12-14T03:19:41;5.15;;;2.78;;
78995;SDS011;68401;47.192;-1.552;2023-12-14T03:22:07;6.10;;;3.03;;
78995;SDS011;68401;47.192;-1.552;2023-12-14T03:24:33;8.30;;;3.92;;
78995;SDS011;68401;47.192;-1.552;2023-12-14T03:26:58;5.25;;;3.25;;
78995;SDS011;68401;47.192;-1.552;2023-12-14T03:29:23;6.40;;;3.00;;
78995;SDS011;68401;47.192;-1.552;2023-12-14T03:31:49;8.10;;;2.70;;
78995;SDS011;68401;47.192;-1.552;2023-12-14T03:34:14;4.03;;;2.70;;
78995;SDS011;68401;47.192;-1.552;2023-12-14T03:36:40;6.78;;;3.08;;
78995;SDS011;68401;47.192;-1.552;2023-12-14T03:39:05;7.13;;;2.75;;
78995;SDS011;68401;47.192;-1.552;2023-12-14T03:41:31;4.93;;;2.97;;
78995;SDS011;68401;47.192;-1.552;2023-12-14T03:43:57;8.98;;;3.00;;
78995;SDS011;68401;47.192;-1.552;2023-12-14T03:46:22;5.60;;;3.38;;
78995;SDS011;68401;47.192;-1.552;2023-12-14T03:48:48;8.93;;;3.05;;
78995;SDS011;68401;47.192;-1.552;2023-12-14T03:51:13;6.07;;;3.17;;
78995;SDS011;68401;47.192;-1.552;2023-12-14T03:53:43;6.40;;;2.40;;
78995;SDS011;68401;47.192;-1.552;2023-12-14T03:56:08;3.63;;;2.08;;
78995;SDS011;68401;47.192;-1.552;2023-12-14T03:58:41;5.15;;;2.58;;
78995;SDS011;68401;47.192;-1.552;2023-12-14T04:01:06;11.07;;;2.90;;
78995;SDS011;68401;47.192;-1.552;2023-12-14T04:03:31;10.20;;;4.00;;
78995;SDS011;68401;47.192;-1.552;2023-12-14T04:05:57;8.73;;;2.75;;
78995;SDS011;68401;47.192;-1.552;2023-12-14T04:08:22;4.18;;;2.33;;
78995;SDS011;68401;47.192;-1.552;2023-12-14T04:10:48;7.97;;;2.85;;
78995;SDS011;68401;47.192;-1.552;2023-12-14T04:13:13;7.30;;;2.38;;
78995;SDS011;68401;47.192;-1.552;2023-12-14T04:15:39;7.18;;;2.72;;
78995;SDS011;68401;47.192;-1.552;2023-12-14T04:18:06;6.45;;;2.75;;
78995;SDS011;68401;47.192;-1.552;2023-12-14T04:20:32;5.78;;;2.55;;
78995;SDS011;68401;47.192;-1.552;2023-12-14T04:22:58;3.75;;;2.38;;
78995;SDS011;68401;47.192;-1.552;2023-12-14T04:25:23;4.40;;;2.20;;
78995;SDS011;68401;47.192;-1.552;2023-12-14T04:27:48;6.50;;;2.50;;
78995;SDS011;68401;47.192;-1.552;2023-12-14T04:30:14;5.95;;;2.53;;
78995;SDS011;68401;47.192;-1.552;2023-12-14T04:32:39;6.95;;;3.13;;
78995;SDS011;68401;47.192;-1.552;2023-12-14T04:35:05;5.50;;;2.15;;
78995;SDS011;68401;47.192;-1.552;2023-12-14T04:37:31;3.78;;;2.20;;
78995;SDS011;68401;47.192;-1.552;2023-12-14T04:39:59;4.70;;;2.08;;
78995;SDS011;68401;47.192;-1.552;2023-12-14T04:42:25;4.05;;;1.92;;
78995;SDS011;68401;47.192;-1.552;2023-12-14T04:44:50;4.72;;;2.10;;
78995;SDS011;68401;47.192;-1.552;2023-12-14T04:47:16;4.10;;;1.90;;
78995;SDS011;68401;47.192;-1.552;2023-12-14T04:49:41;4.32;;;2.13;;
78995;SDS011;68401;47.192;-1.552;2023-12-14T04:52:07;8.50;;;2.40;;
78995;SDS011;68401;47.192;-1.552;2023-12-14T04:54:32;3.97;;;2.42;;
78995;SDS011;68401;47.192;-1.552;2023-12-14T04:56:58;4.15;;;2.15;;
78995;SDS011;68401;47.192;-1.552;2023-12-14T04:59:24;5.15;;;1.88;;
78995;SDS011;68401;47.192;-1.552;2023-12-14T05:01:49;9.30;;;2.63;;
78995;SDS011;68401;47.192;-1.552;2023-12-14T05:04:14;6.25;;;2.20;;
78995;SDS011;68401;47.192;-1.552;2023-12-14T05:06:40;10.75;;;2.80;;
78995;SDS011;68401;47.192;-1.552;2023-12-14T05:09:06;5.30;;;2.75;;
78995;SDS011;68401;47.192;-1.552;2023-12-14T05:11:32;5.65;;;2.30;;
78995;SDS011;68401;47.192;-1.552;2023-12-14T05:13:57;3.05;;;2.00;;
78995;SDS011;68401;47.192;-1.552;2023-12-14T05:16:23;6.95;;;2.53;;
78995;SDS011;68401;47.192;-1.552;2023-12-14T05:18:52;7.88;;;2.50;;
78995;SDS011;68401;47.192;-1.552;2023-12-14T05:21:18;9.00;;;2.40;;
78995;SDS011;68401;47.192;-1.552;2023-12-14T05:23:44;6.65;;;2.58;;
78995;SDS011;68401;47.192;-1.552;2023-12-14T05:26:09;6.57;;;2.72;;
78995;SDS011;68401;47.192;-1.552;2023-12-14T05:28:35;5.90;;;2.92;;
78995;SDS011;68401;47.192;-1.552;2023-12-14T05:31:00;5.72;;;3.03;;
78995;SDS011;68401;47.192;-1.552;2023-12-14T05:33:26;7.60;;;3.10;;
78995;SDS011;68401;47.192;-1.552;2023-12-14T05:35:51;5.25;;;3.40;;
78995;SDS011;68401;47.192;-1.552;2023-12-14T05:38:23;5.40;;;2.88;;
78995;SDS011;68401;47.192;-1.552;2023-12-14T05:40:49;7.22;;;3.10;;
78995;SDS011;68401;47.192;-1.552;2023-12-14T05:43:14;9.18;;;3.40;;
78995;SDS011;68401;47.192;-1.552;2023-12-14T05:45:40;7.93;;;3.05;;
78995;SDS011;68401;47.192;-1.552;2023-12-14T05:48:06;5.50;;;2.97;;
78995;SDS011;68401;47.192;-1.552;2023-12-14T05:50:31;4.57;;;2.65;;
78995;SDS011;68401;47.192;-1.552;2023-12-14T05:52:56;7.45;;;3.92;;
78995;SDS011;68401;47.192;-1.552;2023-12-14T05:55:22;8.48;;;4.45;;
78995;SDS011;68401;47.192;-1.552;2023-12-14T05:57:48;6.68;;;3.03;;
78995;SDS011;68401;47.192;-1.552;2023-12-14T06:00:14;7.53;;;3.75;;
78995;SDS011;68401;47.192;-1.552;2023-12-14T06:02:39;8.80;;;3.65;;
78995;SDS011;68401;47.192;-1.552;2023-12-14T06:05:06;15.32;;;6.60;;
78995;SDS011;68401;47.192;-1.552;2023-12-14T06:07:32;7.15;;;4.90;;
78995;SDS011;68401;47.192;-1.552;2023-12-14T06:09:57;7.85;;;4.07;;
78995;SDS011;68401;47.192;-1.552;2023-12-14T06:12:23;9.07;;;4.75;;
78995;SDS011;68401;47.192;-1.552;2023-12-14T06:14:48;10.13;;;7.85;;
78995;SDS011;68401;47.192;-1.552;2023-12-14T06:17:15;14.82;;;9.15;;
78995;SDS011;68401;47.192;-1.552;2023-12-14T06:19:40;9.18;;;6.65;;
78995;SDS011;68401;47.192;-1.552;2023-12-14T06:22:06;8.82;;;7.30;;
78995;SDS011;68401;47.192;-1.552;2023-12-14T06:24:31;9.20;;;8.15;;
78995;SDS011;68401;47.192;-1.552;2023-12-14T06:26:57;11.10;;;9.80;;
78995;SDS011;68401;47.192;-1.552;2023-12-14T06:29:22;10.57;;;8.65;;
78995;SDS011;68401;47.192;-1.552;2023-12-14T06:31:48;13.43;;;10.25;;
78995;SDS011;68401;47.192;-1.552;2023-12-14T06:34:13;13.05;;;11.77;;
78995;SDS011;68401;47.192;-1.552;2023-12-14T06:36:41;11.48;;;8.15;;
78995;SDS011;68401;47.192;-1.552;2023-12-14T06:39:08;14.68;;;13.18;;
78995;SDS011;68401;47.192;-1.552;2023-12-14T06:41:33;10.88;;;6.85;;
78995;SDS011;68401;47.192;-1.552;2023-12-14T06:43:59;8.07;;;7.18;;
78995;SDS011;68401;47.192;-1.552;2023-12-14T06:46:24;8.82;;;5.65;;
78995;SDS011;68401;47.192;-1.552;2023-12-14T06:48:49;7.85;;;4.20;;
78995;SDS011;68401;47.192;-1.552;2023-12-14T06:51:15;8.27;;;7.15;;
78995;SDS011;68401;47.192;-1.552;2023-12-14T06:53:41;7.85;;;3.67;;
78995;SDS011;68401;47.192;-1.552;2023-12-14T06:56:07;6.35;;;3.08;;
78995;SDS011;68401;47.192;-1.552;2023-12-14T06:58:35;4.18;;;3.03;;
78995;SDS011;68401;47.192;-1.552;2023-12-14T07:01:04;6.85;;;3.40;;
78995;SDS011;68401;47.192;-1.552;2023-12-14T07:03:30;6.03;;;2.95;;
78995;SDS011;68401;47.192;-1.552;2023-12-14T07:05:56;4.47;;;2.92;;
78995;SDS011;68401;47.192;-1.552;2023-12-14T07:08:22;7.25;;;2.88;;
78995;SDS011;68401;47.192;-1.552;2023-12-14T07:10:48;9.77;;;3.30;;
78995;SDS011;68401;47.192;-1.552;2023-12-14T07:13:13;7.22;;;3.55;;
78995;SDS011;68401;47.192;-1.552;2023-12-14T07:15:39;7.50;;;3.17;;
78995;SDS011;68401;47.192;-1.552;2023-12-14T07:18:04;7.22;;;2.75;;
78995;SDS011;68401;47.192;-1.552;2023-12-14T07:20:30;8.00;;;3.35;;
78995;SDS011;68401;47.192;-1.552;2023-12-14T07:22:55;8.95;;;3.30;;
78995;SDS011;68401;47.192;-1.552;2023-12-14T07:25:21;6.30;;;3.10;;
78995;SDS011;68401;47.192;-1.552;2023-12-14T07:27:46;4.60;;;3.08;;
78995;SDS011;68401;47.192;-1.552;2023-12-14T07:30:12;4.53;;;3.00;;
78995;SDS011;68401;47.192;-1.552;2023-12-14T07:32:38;5.20;;;3.15;;
78995;SDS011;68401;47.192;-1.552;2023-12-14T07:35:03;4.75;;;3.40;;
78995;SDS011;68401;47.192;-1.552;2023-12-14T07:37:29;6.68;;;3.47;;
78995;SDS011;68401;47.192;-1.552;2023-12-14T07:39:54;7.32;;;3.17;;
78995;SDS011;68401;47.192;-1.552;2023-12-14T07:42:20;6.45;;;2.97;;
78995;SDS011;68401;47.192;-1.552;2023-12-14T07:44:46;5.55;;;3.28;;
78995;SDS011;68401;47.192;-1.552;2023-12-14T07:47:11;5.72;;;3.55;;
78995;SDS011;68401;47.192;-1.552;2023-12-14T07:49:37;6.07;;;3.47;;
78995;SDS011;68401;47.192;-1.552;2023-12-14T07:52:02;7.68;;;3.33;;
78995;SDS011;68401;47.192;-1.552;2023-12-14T07:54:28;8.85;;;3.38;;
78995;SDS011;68401;47.192;-1.552;2023-12-14T07:56:54;5.93;;;3.60;;
78995;SDS011;68401;47.192;-1.552;2023-12-14T07:59:19;6.65;;;3.50;;
78995;SDS011;68401;47.192;-1.552;2023-12-14T08:01:45;7.82;;;4.00;;
78995;SDS011;68401;47.192;-1.552;2023-12-14T08:04:11;10.50;;;4.82;;
78995;SDS011;68401;47.192;-1.552;2023-12-14T08:06:36;6.53;;;4.22;;
78995;SDS011;68401;47.192;-1.552;2023-12-14T08:09:04;7.93;;;4.22;;
78995;SDS011;68401;47.192;-1.552;2023-12-14T08:11:30;9.95;;;4.47;;
78995;SDS011;68401;47.192;-1.552;2023-12-14T08:13:56;11.13;;;4.93;;
78995;SDS011;68401;47.192;-1.552;2023-12-14T08:16:21;10.35;;;4.85;;
78995;SDS011;68401;47.192;-1.552;2023-12-14T08:18:47;9.75;;;4.68;;
78995;SDS011;68401;47.192;-1.552;2023-12-14T08:21:13;10.68;;;5.20;;
78995;SDS011;68401;47.192;-1.552;2023-12-14T08:23:39;7.20;;;5.13;;
78995;SDS011;68401;47.192;-1.552;2023-12-14T08:26:04;10.82;;;4.80;;
78995;SDS011;68401;47.192;-1.552;2023-12-14T08:28:31;6.18;;;3.72;;
78995;SDS011;68401;47.192;-1.552;2023-12-14T08:30:56;11.27;;;5.05;;
78995;SDS011;68401;47.192;-1.552;2023-12-14T08:33:23;13.63;;;4.82;;
78995;SDS011;68401;47.192;-1.552;2023-12-14T08:35:49;9.70;;;4.72;;
78995;SDS011;68401;47.192;-1.552;2023-12-14T08:38:21;8.38;;;5.00;;
78995;SDS011;68401;47.192;-1.552;2023-12-14T08:40:47;11.00;;;5.80;;
78995;SDS011;68401;47.192;-1.552;2023-12-14T08:43:12;10.80;;;5.63;;
78995;SDS011;68401;47.192;-1.552;2023-12-14T08:45:38;13.10;;;6.70;;
78995;SDS011;68401;47.192;-1.552;2023-12-14T08:48:03;13.15;;;6.13;;
78995;SDS011;68401;47.192;-1.552;2023-12-14T08:50:29;10.60;;;6.80;;
78995;SDS011;68401;47.192;-1.552;2023-12-14T08:52:54;15.43;;;5.80;;
78995;SDS011;68401;47.192;-1.552;2023-12-14T08:55:20;8.00;;;5.50;;
78995;SDS011;68401;47.192;-1.552;2023-12-14T08:57:45;13.82;;;6.63;;
78995;SDS011;68401;47.192;-1.552;2023-12-14T09:00:11;8.52;;;5.20;;
78995;SDS011;68401;47.192;-1.552;2023-12-14T09:02:37;14.43;;;5.72;;
78995;SDS011;68401;47.192;-1.552;2023-12-14T09:05:02;11.68;;;6.32;;
78995;SDS011;68401;47.192;-1.552;2023-12-14T09:07:29;8.32;;;5.32;;
78995;SDS011;68401;47.192;-1.552;2023-12-14T09:09:55;11.80;;;6.53;;
78995;SDS011;68401;47.192;-1.552;2023-12-14T09:12:20;10.70;;;6.45;;
78995;SDS011;68401;47.192;-1.552;2023-12-14T09:14:46;11.95;;;6.55;;
78995;SDS011;68401;47.192;-1.552;2023-12-14T09:17:34;10.25;;;5.88;;
78995;SDS011;68401;47.192;-1.552;2023-12-14T09:20:07;9.55;;;5.70;;
78995;SDS011;68401;47.192;-1.552;2023-12-14T09:22:33;10.85;;;5.70;;
78995;SDS011;68401;47.192;-1.552;2023-12-14T09:24:58;9.63;;;6.15;;
78995;SDS011;68401;47.192;-1.552;2023-12-14T09:27:24;10.70;;;5.93;;
78995;SDS011;68401;47.192;-1.552;2023-12-14T09:29:49;13.55;;;7.32;;
78995;SDS011;68401;47.192;-1.552;2023-12-14T09:32:14;8.82;;;5.00;;
78995;SDS011;68401;47.192;-1.552;2023-12-14T09:34:42;8.65;;;5.75;;
78995;SDS011;68401;47.192;-1.552;2023-12-14T09:37:07;13.45;;;6.18;;
78995;SDS011;68401;47.192;-1.552;2023-12-14T09:39:33;17.23;;;6.82;;
78995;SDS011;68401;47.192;-1.552;2023-12-14T09:42:02;9.10;;;5.95;;
78995;SDS011;68401;47.192;-1.552;2023-12-14T09:44:31;12.32;;;6.63;;
78995;SDS011;68401;47.192;-1.552;2023-12-14T09:47:01;11.48;;;6.45;;
78995;SDS011;68401;47.192;-1.552;2023-12-14T09:49:27;10.63;;;5.93;;
78995;SDS011;68401;47.192;-1.552;2023-12-14T09:51:57;9.13;;;5.05;;
78995;SDS011;68401;47.192;-1.552;2023-12-14T09:54:23;13.65;;;5.47;;
78995;SDS011;68401;47.192;-1.552;2023-12-14T09:56:49;9.70;;;4.68;;
78995;SDS011;68401;47.192;-1.552;2023-12-14T09:59:15;6.68;;;3.80;;
78995;SDS011;68401;47.192;-1.552;2023-12-14T10:01:41;6.55;;;3.35;;
78995;SDS011;68401;47.192;-1.552;2023-12-14T10:04:08;5.75;;;3.42;;
78995;SDS011;68401;47.192;-1.552;2023-12-14T10:06:34;8.10;;;3.85;;
78995;SDS011;68401;47.192;-1.552;2023-12-14T10:08:59;6.00;;;3.38;;
78995;SDS011;68401;47.192;-1.552;2023-12-14T10:11:25;6.70;;;4.00;;
78995;SDS011;68401;47.192;-1.552;2023-12-14T10:13:50;13.07;;;4.25;;
78995;SDS011;68401;47.192;-1.552;2023-12-14T10:16:31;8.05;;;4.50;;
78995;SDS011;68401;47.192;-1.552;2023-12-14T10:18:57;6.30;;;3.55;;
78995;SDS011;68401;47.192;-1.552;2023-12-14T10:21:25;9.50;;;3.88;;
78995;SDS011;68401;47.192;-1.552;2023-12-14T10:23:51;7.75;;;3.95;;
78995;SDS011;68401;47.192;-1.552;2023-12-14T10:26:17;9.05;;;3.50;;
78995;SDS011;68401;47.192;-1.552;2023-12-14T10:28:43;7.32;;;3.60;;
78995;SDS011;68401;47.192;-1.552;2023-12-14T10:31:08;12.05;;;4.15;;
78995;SDS011;68401;47.192;-1.552;2023-12-14T10:33:35;10.38;;;4.50;;
78995;SDS011;68401;47.192;-1.552;2023-12-14T10:36:00;8.70;;;3.33;;
78995;SDS011;68401;47.192;-1.552;2023-12-14T10:38:27;7.28;;;3.67;;
78995;SDS011;68401;47.192;-1.552;2023-12-14T10:40:54;6.70;;;4.00;;
78995;SDS011;68401;47.192;-1.552;2023-12-14T10:43:20;9.95;;;4.15;;
78995;SDS011;68401;47.192;-1.552;2023-12-14T10:45:46;9.80;;;4.22;;
78995;SDS011;68401;47.192;-1.552;2023-12-14T10:48:13;10.65;;;4.57;;
78995;SDS011;68401;47.192;-1.552;2023-12-14T10:50:38;9.10;;;4.90;;
78995;SDS011;68401;47.192;-1.552;2023-12-14T10:53:07;9.43;;;4.13;;
78995;SDS011;68401;47.192;-1.552;2023-12-14T10:55:36;9.32;;;4.55;;
78995;SDS011;68401;47.192;-1.552;2023-12-14T10:58:03;9.25;;;4.47;;
78995;SDS011;68401;47.192;-1.552;2023-12-14T11:00:30;11.02;;;4.75;;
78995;SDS011;68401;47.192;-1.552;2023-12-14T11:02:56;10.70;;;3.78;;
78995;SDS011;68401;47.192;-1.552;2023-12-14T11:05:22;9.55;;;3.38;;
78995;SDS011;68401;47.192;-1.552;2023-12-14T11:07:54;7.57;;;4.13;;
78995;SDS011;68401;47.192;-1.552;2023-12-14T11:10:41;7.68;;;4.15;;
78995;SDS011;68401;47.192;-1.552;2023-12-14T11:13:12;9.85;;;3.88;;
78995;SDS011;68401;47.192;-1.552;2023-12-14T11:15:46;6.10;;;3.85;;
78995;SDS011;68401;47.192;-1.552;2023-12-14T11:23:56;8.52;;;4.43;;
78995;SDS011;68401;47.192;-1.552;2023-12-14T11:26:10;7.20;;;3.58;;
78995;SDS011;68401;47.192;-1.552;2023-12-14T11:28:39;12.02;;;5.35;;
78995;SDS011;68401;47.192;-1.552;2023-12-14T11:31:11;12.35;;;5.97;;
78995;SDS011;68401;47.192;-1.552;2023-12-14T11:33:37;8.38;;;3.70;;
78995;SDS011;68401;47.192;-1.552;2023-12-14T11:36:02;7.43;;;4.55;;
78995;SDS011;68401;47.192;-1.552;2023-12-14T11:38:28;5.82;;;3.30;;
78995;SDS011;68401;47.192;-1.552;2023-12-14T11:40:54;8.25;;;3.83;;
78995;SDS011;68401;47.192;-1.552;2023-12-14T11:43:20;10.45;;;3.53;;
78995;SDS011;68401;47.192;-1.552;2023-12-14T11:45:46;7.95;;;3.20;;
78995;SDS011;68401;47.192;-1.552;2023-12-14T11:48:12;6.03;;;3.40;;
78995;SDS011;68401;47.192;-1.552;2023-12-14T11:50:41;9.48;;;3.63;;
78995;SDS011;68401;47.192;-1.552;2023-12-14T11:53:07;7.65;;;2.78;;
78995;SDS011;68401;47.192;-1.552;2023-12-14T11:55:34;4.55;;;2.90;;
78995;SDS011;68401;47.192;-1.552;2023-12-14T11:58:00;10.98;;;3.85;;
78995;SDS011;68401;47.192;-1.552;2023-12-14T12:00:27;4.88;;;2.60;;
78995;SDS011;68401;47.192;-1.552;2023-12-14T12:03:10;6.28;;;3.65;;
78995;SDS011;68401;47.192;-1.552;2023-12-14T12:05:37;6.78;;;3.55;;
78995;SDS011;68401;47.192;-1.552;2023-12-14T12:08:04;14.27;;;3.47;;
78995;SDS011;68401;47.192;-1.552;2023-12-14T12:10:30;8.65;;;2.65;;
78995;SDS011;68401;47.192;-1.552;2023-12-14T12:13:00;7.07;;;3.25;;
78995;SDS011;68401;47.192;-1.552;2023-12-14T12:15:26;8.68;;;3.05;;
78995;SDS011;68401;47.192;-1.552;2023-12-14T12:17:58;6.90;;;2.55;;
78995;SDS011;68401;47.192;-1.552;2023-12-14T12:20:24;7.63;;;3.10;;
78995;SDS011;68401;47.192;-1.552;2023-12-14T12:22:50;7.03;;;3.20;;
78995;SDS011;68401;47.192;-1.552;2023-12-14T12:25:16;4.32;;;2.75;;
78995;SDS011;68401;47.192;-1.552;2023-12-14T12:27:41;7.38;;;3.50;;
78995;SDS011;68401;47.192;-1.552;2023-12-14T12:30:07;11.63;;;3.83;;
78995;SDS011;68401;47.192;-1.552;2023-12-14T12:32:33;7.20;;;2.67;;
78995;SDS011;68401;47.192;-1.552;2023-12-14T12:34:58;8.10;;;3.53;;
78995;SDS011;68401;47.192;-1.552;2023-12-14T12:37:24;4.10;;;2.50;;
78995;SDS011;68401;47.192;-1.552;2023-12-14T12:39:49;7.97;;;3.20;;
78995;SDS011;68401;47.192;-1.552;2023-12-14T12:42:15;7.57;;;2.92;;
78995;SDS011;68401;47.192;-1.552;2023-12-14T12:44:40;9.07;;;3.90;;
78995;SDS011;68401;47.192;-1.552;2023-12-14T12:47:06;6.22;;;2.50;;
78995;SDS011;68401;47.192;-1.552;2023-12-14T12:49:31;8.57;;;3.22;;
78995;SDS011;68401;47.192;-1.552;2023-12-14T12:51:57;7.13;;;3.00;;
78995;SDS011;68401;47.192;-1.552;2023-12-14T12:54:22;6.47;;;3.40;;
78995;SDS011;68401;47.192;-1.552;2023-12-14T12:56:47;8.73;;;2.78;;
78995;SDS011;68401;47.192;-1.552;2023-12-14T12:59:13;6.80;;;2.67;;
78995;SDS011;68401;47.192;-1.552;2023-12-14T13:01:39;9.25;;;4.47;;
78995;SDS011;68401;47.192;-1.552;2023-12-14T13:04:05;8.43;;;3.67;;
78995;SDS011;68401;47.192;-1.552;2023-12-14T13:06:42;9.88;;;4.60;;
78995;SDS011;68401;47.192;-1.552;2023-12-14T13:09:08;13.90;;;6.40;;
78995;SDS011;68401;47.192;-1.552;2023-12-14T13:11:33;8.07;;;3.40;;
78995;SDS011;68401;47.192;-1.552;2023-12-14T13:13:58;7.65;;;3.38;;
78995;SDS011;68401;47.192;-1.552;2023-12-14T13:16:26;8.90;;;3.53;;
78995;SDS011;68401;47.192;-1.552;2023-12-14T13:18:51;7.35;;;2.72;;
78995;SDS011;68401;47.192;-1.552;2023-12-14T13:21:17;8.10;;;3.28;;
78995;SDS011;68401;47.192;-1.552;2023-12-14T13:23:42;8.15;;;2.90;;
78995;SDS011;68401;47.192;-1.552;2023-12-14T13:26:09;9.10;;;2.95;;
78995;SDS011;68401;47.192;-1.552;2023-12-14T13:28:34;9.60;;;3.45;;
78995;SDS011;68401;47.192;-1.552;2023-12-14T13:30:59;8.85;;;3.20;;
78995;SDS011;68401;47.192;-1.552;2023-12-14T13:33:25;4.72;;;2.80;;
78995;SDS011;68401;47.192;-1.552;2023-12-14T13:35:50;7.05;;;3.33;;
78995;SDS011;68401;47.192;-1.552;2023-12-14T13:38:16;6.50;;;3.10;;
78995;SDS011;68401;47.192;-1.552;2023-12-14T13:40:41;5.07;;;2.10;;
78995;SDS011;68401;47.192;-1.552;2023-12-14T13:43:06;8.95;;;3.33;;
78995;SDS011;68401;47.192;-1.552;2023-12-14T13:45:35;6.53;;;2.97;;
78995;SDS011;68401;47.192;-1.552;2023-12-14T13:48:02;6.13;;;3.00;;
78995;SDS011;68401;47.192;-1.552;2023-12-14T13:50:27;9.23;;;2.85;;
78995;SDS011;68401;47.192;-1.552;2023-12-14T13:52:53;7.30;;;3.80;;
78995;SDS011;68401;47.192;-1.552;2023-12-14T13:55:18;9.65;;;4.10;;
78995;SDS011;68401;47.192;-1.552;2023-12-14T13:57:44;8.63;;;2.63;;
78995;SDS011;68401;47.192;-1.552;2023-12-14T14:00:10;8.63;;;2.50;;
78995;SDS011;68401;47.192;-1.552;2023-12-14T14:02:36;8.88;;;3.17;;
78995;SDS011;68401;47.192;-1.552;2023-12-14T14:05:02;7.28;;;2.55;;
78995;SDS011;68401;47.192;-1.552;2023-12-14T14:07:28;7.80;;;2.92;;
78995;SDS011;68401;47.192;-1.552;2023-12-14T14:09:53;9.48;;;3.35;;
78995;SDS011;68401;47.192;-1.552;2023-12-14T14:12:19;6.93;;;3.28;;
78995;SDS011;68401;47.192;-1.552;2023-12-14T14:14:44;8.05;;;3.20;;
78995;SDS011;68401;47.192;-1.552;2023-12-14T14:17:09;6.80;;;2.50;;
78995;SDS011;68401;47.192;-1.552;2023-12-14T14:19:35;8.40;;;2.58;;
78995;SDS011;68401;47.192;-1.552;2023-12-14T14:22:07;9.40;;;3.22;;
78995;SDS011;68401;47.192;-1.552;2023-12-14T14:24:33;6.40;;;3.53;;
78995;SDS011;68401;47.192;-1.552;2023-12-14T14:26:59;7.10;;;3.33;;
78995;SDS011;68401;47.192;-1.552;2023-12-14T14:29:24;12.70;;;3.55;;
78995;SDS011;68401;47.192;-1.552;2023-12-14T14:31:50;8.05;;;3.10;;